Wall Lake, Indiana
Current Conditions -  °F | °C
As of 2:35 PM on Thursday 18 Dec 2014 (Local Time) from KANQ Reporting Station
Overcast Overcast  
Wind Chill: 19°   Ceiling: 1000
Heat Index: 27°   Visibility: 10mi
Dew Point: 25°   Wind: 7mph
Humidity: 93%   Direction: 280°W
Pressure: 30.18"   Gusts: NA
Location:  41.7299°N, 85.1413°W
Report Text: KANQ 181935Z AUTO 28006KT 10SM OVC010 M03/M04 A3018 RMK
Loading
Personal Weather Stations






























Interactive Weather Map New forecast layout! Learn more

10-Day Weather Forecast

Advertisements
Track Severe Weather on mobile